sensor_id;sensor_type;location;lat;lon;timestamp;temperature;humidity
67862;DHT22;54665;51.462;6.698;2023-03-05T00:02:02;5.20;78.91
67862;DHT22;54665;51.462;6.698;2023-03-05T00:04:27;5.25;78.51
67862;DHT22;54665;51.462;6.698;2023-03-05T00:06:53;5.27;78.34
67862;DHT22;54665;51.462;6.698;2023-03-05T00:09:19;5.35;78.37
67862;DHT22;54665;51.462;6.698;2023-03-05T00:11:45;5.23;78.66
67862;DHT22;54665;51.462;6.698;2023-03-05T00:14:10;5.23;78.45
67862;DHT22;54665;51.462;6.698;2023-03-05T00:16:36;5.15;78.59
67862;DHT22;54665;51.462;6.698;2023-03-05T00:19:01;5.17;78.59
67862;DHT22;54665;51.462;6.698;2023-03-05T00:21:35;5.27;78.31
67862;DHT22;54665;51.462;6.698;2023-03-05T00:24:04;5.23;78.48
67862;DHT22;54665;51.462;6.698;2023-03-05T00:26:30;5.20;78.53
67862;DHT22;54665;51.462;6.698;2023-03-05T00:28:56;5.27;78.46
67862;DHT22;54665;51.462;6.698;2023-03-05T00:31:27;5.30;78.29
67862;DHT22;54665;51.462;6.698;2023-03-05T00:34:04;5.34;78.25
67862;DHT22;54665;51.462;6.698;2023-03-05T00:36:30;5.37;78.35
67862;DHT22;54665;51.462;6.698;2023-03-05T00:38:56;5.37;78.13
67862;DHT22;54665;51.462;6.698;2023-03-05T00:41:21;5.30;78.34
67862;DHT22;54665;51.462;6.698;2023-03-05T00:43:47;5.35;77.93
67862;DHT22;54665;51.462;6.698;2023-03-05T00:46:12;5.32;78.23
67862;DHT22;54665;51.462;6.698;2023-03-05T00:48:38;5.37;78.04
67862;DHT22;54665;51.462;6.698;2023-03-05T00:51:03;5.48;78.01
67862;DHT22;54665;51.462;6.698;2023-03-05T00:53:29;5.38;78.04
67862;DHT22;54665;51.462;6.698;2023-03-05T00:55:54;5.21;78.61
67862;DHT22;54665;51.462;6.698;2023-03-05T00:58:20;5.15;78.79
67862;DHT22;54665;51.462;6.698;2023-03-05T01:00:45;5.13;79.15
67862;DHT22;54665;51.462;6.698;2023-03-05T01:03:10;5.28;78.59
67862;DHT22;54665;51.462;6.698;2023-03-05T01:05:36;5.44;78.22
67862;DHT22;54665;51.462;6.698;2023-03-05T01:08:01;5.41;78.30
67862;DHT22;54665;51.462;6.698;2023-03-05T01:10:27;5.28;78.77
67862;DHT22;54665;51.462;6.698;2023-03-05T01:12:55;5.27;78.76
67862;DHT22;54665;51.462;6.698;2023-03-05T01:15:21;5.35;78.42
67862;DHT22;54665;51.462;6.698;2023-03-05T01:17:47;5.21;78.93
67862;DHT22;54665;51.462;6.698;2023-03-05T01:20:13;5.24;78.88
67862;DHT22;54665;51.462;6.698;2023-03-05T01:22:40;5.24;79.08
67862;DHT22;54665;51.462;6.698;2023-03-05T01:25:06;5.24;78.92
67862;DHT22;54665;51.462;6.698;2023-03-05T01:27:32;5.07;79.17
67862;DHT22;54665;51.462;6.698;2023-03-05T01:29:57;5.13;79.16
67862;DHT22;54665;51.462;6.698;2023-03-05T01:32:23;5.17;78.94
67862;DHT22;54665;51.462;6.698;2023-03-05T01:34:49;5.14;78.68
67862;DHT22;54665;51.462;6.698;2023-03-05T01:37:14;5.10;78.74
67862;DHT22;54665;51.462;6.698;2023-03-05T01:39:39;5.18;78.63
67862;DHT22;54665;51.462;6.698;2023-03-05T01:42:05;5.18;78.46
67862;DHT22;54665;51.462;6.698;2023-03-05T01:44:32;5.21;78.50
67862;DHT22;54665;51.462;6.698;2023-03-05T01:46:58;5.08;78.80
67862;DHT22;54665;51.462;6.698;2023-03-05T01:49:35;5.13;78.78
67862;DHT22;54665;51.462;6.698;2023-03-05T01:52:10;5.31;78.20
67862;DHT22;54665;51.462;6.698;2023-03-05T01:54:47;5.38;78.12
67862;DHT22;54665;51.462;6.698;2023-03-05T01:57:17;5.24;78.40
67862;DHT22;54665;51.462;6.698;2023-03-05T01:59:47;5.24;78.39
67862;DHT22;54665;51.462;6.698;2023-03-05T02:02:13;5.21;78.58
67862;DHT22;54665;51.462;6.698;2023-03-05T02:04:50;5.27;78.28
67862;DHT22;54665;51.462;6.698;2023-03-05T02:07:18;5.18;78.85
67862;DHT22;54665;51.462;6.698;2023-03-05T02:09:46;5.38;78.26
67862;DHT22;54665;51.462;6.698;2023-03-05T02:12:12;5.14;78.55
67862;DHT22;54665;51.462;6.698;2023-03-05T02:14:40;5.32;78.57
67862;DHT22;54665;51.462;6.698;2023-03-05T02:17:07;5.24;78.36
67862;DHT22;54665;51.462;6.698;2023-03-05T02:19:48;5.41;77.88
67862;DHT22;54665;51.462;6.698;2023-03-05T02:22:16;5.20;78.67
67862;DHT22;54665;51.462;6.698;2023-03-05T02:24:41;5.34;78.50
67862;DHT22;54665;51.462;6.698;2023-03-05T02:27:07;5.38;78.34
67862;DHT22;54665;51.462;6.698;2023-03-05T02:29:33;5.24;78.75
67862;DHT22;54665;51.462;6.698;2023-03-05T02:32:01;5.28;78.99
67862;DHT22;54665;51.462;6.698;2023-03-05T02:34:27;5.11;78.84
67862;DHT22;54665;51.462;6.698;2023-03-05T02:36:56;5.17;79.07
67862;DHT22;54665;51.462;6.698;2023-03-05T02:39:30;5.14;78.64
67862;DHT22;54665;51.462;6.698;2023-03-05T02:41:56;4.98;78.84
67862;DHT22;54665;51.462;6.698;2023-03-05T02:44:22;5.15;78.45
67862;DHT22;54665;51.462;6.698;2023-03-05T02:46:47;5.17;78.55
67862;DHT22;54665;51.462;6.698;2023-03-05T02:49:13;5.18;78.52
67862;DHT22;54665;51.462;6.698;2023-03-05T02:51:38;5.15;78.58
67862;DHT22;54665;51.462;6.698;2023-03-05T02:54:05;5.17;78.67
67862;DHT22;54665;51.462;6.698;2023-03-05T02:56:31;5.23;78.54
67862;DHT22;54665;51.462;6.698;2023-03-05T02:58:58;4.98;78.90
67862;DHT22;54665;51.462;6.698;2023-03-05T03:01:24;5.00;79.00
67862;DHT22;54665;51.462;6.698;2023-03-05T03:03:53;4.97;79.02
67862;DHT22;54665;51.462;6.698;2023-03-05T03:06:19;5.03;78.96
67862;DHT22;54665;51.462;6.698;2023-03-05T03:08:44;5.06;79.25
67862;DHT22;54665;51.462;6.698;2023-03-05T03:11:10;5.04;78.76
67862;DHT22;54665;51.462;6.698;2023-03-05T03:13:39;4.97;78.95
67862;DHT22;54665;51.462;6.698;2023-03-05T03:16:08;4.88;79.50
67862;DHT22;54665;51.462;6.698;2023-03-05T03:18:34;4.90;79.71
67862;DHT22;54665;51.462;6.698;2023-03-05T03:21:00;4.81;79.95
67862;DHT22;54665;51.462;6.698;2023-03-05T03:23:25;4.84;79.74
67862;DHT22;54665;51.462;6.698;2023-03-05T03:25:51;4.74;80.02
67862;DHT22;54665;51.462;6.698;2023-03-05T03:28:16;4.91;79.86
67862;DHT22;54665;51.462;6.698;2023-03-05T03:30:42;4.80;80.06
67862;DHT22;54665;51.462;6.698;2023-03-05T03:33:07;4.63;80.32
67862;DHT22;54665;51.462;6.698;2023-03-05T03:35:33;4.65;81.24
67862;DHT22;54665;51.462;6.698;2023-03-05T03:37:58;4.66;81.12
67862;DHT22;54665;51.462;6.698;2023-03-05T03:40:23;4.67;81.28
67862;DHT22;54665;51.462;6.698;2023-03-05T03:42:52;4.76;81.18
67862;DHT22;54665;51.462;6.698;2023-03-05T03:45:18;4.77;81.05
67862;DHT22;54665;51.462;6.698;2023-03-05T03:47:43;4.66;81.56
67862;DHT22;54665;51.462;6.698;2023-03-05T03:50:09;4.83;80.73
67862;DHT22;54665;51.462;6.698;2023-03-05T03:52:35;4.94;80.53
67862;DHT22;54665;51.462;6.698;2023-03-05T03:55:00;4.98;80.21
67862;DHT22;54665;51.462;6.698;2023-03-05T03:57:29;4.98;80.61
67862;DHT22;54665;51.462;6.698;2023-03-05T03:59:55;5.04;80.39
67862;DHT22;54665;51.462;6.698;2023-03-05T04:02:21;5.00;80.69
67862;DHT22;54665;51.462;6.698;2023-03-05T04:04:46;5.03;80.29
67862;DHT22;54665;51.462;6.698;2023-03-05T04:07:12;5.03;80.40
67862;DHT22;54665;51.462;6.698;2023-03-05T04:09:38;4.90;80.93
67862;DHT22;54665;51.462;6.698;2023-03-05T04:12:03;4.97;80.76
67862;DHT22;54665;51.462;6.698;2023-03-05T04:14:29;4.96;80.74
67862;DHT22;54665;51.462;6.698;2023-03-05T04:16:54;4.83;80.93
67862;DHT22;54665;51.462;6.698;2023-03-05T04:19:20;4.97;80.45
67862;DHT22;54665;51.462;6.698;2023-03-05T04:21:45;4.70;81.05
67862;DHT22;54665;51.462;6.698;2023-03-05T04:24:10;4.72;80.80
67862;DHT22;54665;51.462;6.698;2023-03-05T04:26:36;4.63;80.98
67862;DHT22;54665;51.462;6.698;2023-03-05T04:29:01;4.66;80.99
67862;DHT22;54665;51.462;6.698;2023-03-05T04:31:27;4.73;80.95
67862;DHT22;54665;51.462;6.698;2023-03-05T04:33:52;4.79;80.79
67862;DHT22;54665;51.462;6.698;2023-03-05T04:36:17;4.74;80.61
67862;DHT22;54665;51.462;6.698;2023-03-05T04:38:43;4.69;80.85
67862;DHT22;54665;51.462;6.698;2023-03-05T04:41:08;4.80;80.35
67862;DHT22;54665;51.462;6.698;2023-03-05T04:43:34;4.77;80.55
67862;DHT22;54665;51.462;6.698;2023-03-05T04:45:59;4.93;80.06
67862;DHT22;54665;51.462;6.698;2023-03-05T04:48:24;4.76;80.20
67862;DHT22;54665;51.462;6.698;2023-03-05T04:50:50;4.80;80.09
67862;DHT22;54665;51.462;6.698;2023-03-05T04:53:15;4.80;80.48
67862;DHT22;54665;51.462;6.698;2023-03-05T04:55:41;4.83;80.08
67862;DHT22;54665;51.462;6.698;2023-03-05T04:58:07;4.81;80.25
67862;DHT22;54665;51.462;6.698;2023-03-05T05:00:33;4.72;80.62
67862;DHT22;54665;51.462;6.698;2023-03-05T05:02:58;4.79;80.26
67862;DHT22;54665;51.462;6.698;2023-03-05T05:05:26;4.80;80.03
67862;DHT22;54665;51.462;6.698;2023-03-05T05:07:56;4.84;80.16
67862;DHT22;54665;51.462;6.698;2023-03-05T05:10:23;4.72;79.87
67862;DHT22;54665;51.462;6.698;2023-03-05T05:12:48;4.66;80.47
67862;DHT22;54665;51.462;6.698;2023-03-05T05:15:14;4.73;80.19
67862;DHT22;54665;51.462;6.698;2023-03-05T05:17:39;4.72;80.21
67862;DHT22;54665;51.462;6.698;2023-03-05T05:20:05;4.62;80.13
67862;DHT22;54665;51.462;6.698;2023-03-05T05:22:32;4.60;80.65
67862;DHT22;54665;51.462;6.698;2023-03-05T05:24:58;4.59;80.29
67862;DHT22;54665;51.462;6.698;2023-03-05T05:27:23;4.69;80.56
67862;DHT22;54665;51.462;6.698;2023-03-05T05:29:49;4.69;80.29
67862;DHT22;54665;51.462;6.698;2023-03-05T05:32:22;4.74;80.15
67862;DHT22;54665;51.462;6.698;2023-03-05T05:34:52;4.90;79.75
67862;DHT22;54665;51.462;6.698;2023-03-05T05:37:17;4.79;79.69
67862;DHT22;54665;51.462;6.698;2023-03-05T05:39:43;4.84;79.56
67862;DHT22;54665;51.462;6.698;2023-03-05T05:42:15;4.70;80.07
67862;DHT22;54665;51.462;6.698;2023-03-05T05:44:40;4.81;79.92
67862;DHT22;54665;51.462;6.698;2023-03-05T05:47:06;4.60;79.97
67862;DHT22;54665;51.462;6.698;2023-03-05T05:49:31;4.70;79.65
67862;DHT22;54665;51.462;6.698;2023-03-05T05:51:56;4.77;79.54
67862;DHT22;54665;51.462;6.698;2023-03-05T05:54:23;4.73;79.83
67862;DHT22;54665;51.462;6.698;2023-03-05T05:56:48;4.67;79.69
67862;DHT22;54665;51.462;6.698;2023-03-05T05:59:14;4.63;79.46
67862;DHT22;54665;51.462;6.698;2023-03-05T06:01:39;4.70;79.70
67862;DHT22;54665;51.462;6.698;2023-03-05T06:04:04;4.70;79.62
67862;DHT22;54665;51.462;6.698;2023-03-05T06:06:31;4.55;79.93
67862;DHT22;54665;51.462;6.698;2023-03-05T06:08:59;4.57;79.86
67862;DHT22;54665;51.462;6.698;2023-03-05T06:11:24;4.66;79.86
67862;DHT22;54665;51.462;6.698;2023-03-05T06:13:50;4.62;79.83
67862;DHT22;54665;51.462;6.698;2023-03-05T06:16:18;4.59;79.82
67862;DHT22;54665;51.462;6.698;2023-03-05T06:18:44;4.67;79.79
67862;DHT22;54665;51.462;6.698;2023-03-05T06:21:12;4.69;79.72
67862;DHT22;54665;51.462;6.698;2023-03-05T06:23:38;4.66;79.35
67862;DHT22;54665;51.462;6.698;2023-03-05T06:26:05;4.70;79.40
67862;DHT22;54665;51.462;6.698;2023-03-05T06:28:32;4.86;78.93
67862;DHT22;54665;51.462;6.698;2023-03-05T06:31:01;4.70;79.78
67862;DHT22;54665;51.462;6.698;2023-03-05T06:33:26;4.72;80.09
67862;DHT22;54665;51.462;6.698;2023-03-05T06:35:52;4.84;79.36
67862;DHT22;54665;51.462;6.698;2023-03-05T06:38:17;4.76;79.48
67862;DHT22;54665;51.462;6.698;2023-03-05T06:40:43;4.72;79.78
67862;DHT22;54665;51.462;6.698;2023-03-05T06:43:08;4.74;79.89
67862;DHT22;54665;51.462;6.698;2023-03-05T06:45:33;4.87;79.41
67862;DHT22;54665;51.462;6.698;2023-03-05T06:47:59;4.84;79.96
67862;DHT22;54665;51.462;6.698;2023-03-05T06:50:24;4.79;80.10
67862;DHT22;54665;51.462;6.698;2023-03-05T06:52:49;4.60;80.41
67862;DHT22;54665;51.462;6.698;2023-03-05T06:55:16;4.88;80.15
67862;DHT22;54665;51.462;6.698;2023-03-05T06:57:42;4.91;79.69
67862;DHT22;54665;51.462;6.698;2023-03-05T07:00:08;4.88;80.20
67862;DHT22;54665;51.462;6.698;2023-03-05T07:02:38;4.88;80.25
67862;DHT22;54665;51.462;6.698;2023-03-05T07:05:05;4.80;80.13
67862;DHT22;54665;51.462;6.698;2023-03-05T07:07:31;4.97;80.25
67862;DHT22;54665;51.462;6.698;2023-03-05T07:09:57;4.97;79.89
67862;DHT22;54665;51.462;6.698;2023-03-05T07:12:22;5.04;79.77
67862;DHT22;54665;51.462;6.698;2023-03-05T07:14:48;4.87;80.58
67862;DHT22;54665;51.462;6.698;2023-03-05T07:17:13;5.01;80.13
67862;DHT22;54665;51.462;6.698;2023-03-05T07:19:40;5.01;80.06
67862;DHT22;54665;51.462;6.698;2023-03-05T07:22:06;5.15;79.80
67862;DHT22;54665;51.462;6.698;2023-03-05T07:24:32;5.06;79.85
67862;DHT22;54665;51.462;6.698;2023-03-05T07:26:58;5.08;80.45
67862;DHT22;54665;51.462;6.698;2023-03-05T07:29:24;4.83;80.65
67862;DHT22;54665;51.462;6.698;2023-03-05T07:31:50;5.07;80.31
67862;DHT22;54665;51.462;6.698;2023-03-05T07:34:16;4.91;80.28
67862;DHT22;54665;51.462;6.698;2023-03-05T07:36:42;5.06;80.80
67862;DHT22;54665;51.462;6.698;2023-03-05T07:39:09;5.28;79.73
67862;DHT22;54665;51.462;6.698;2023-03-05T07:41:34;5.25;79.78
67862;DHT22;54665;51.462;6.698;2023-03-05T07:44:00;5.14;79.91
67862;DHT22;54665;51.462;6.698;2023-03-05T07:46:28;5.04;80.38
67862;DHT22;54665;51.462;6.698;2023-03-05T07:48:55;5.20;80.67
67862;DHT22;54665;51.462;6.698;2023-03-05T07:51:23;5.10;81.34
67862;DHT22;54665;51.462;6.698;2023-03-05T07:53:50;5.32;81.39
67862;DHT22;54665;51.462;6.698;2023-03-05T07:56:32;5.38;80.81
67862;DHT22;54665;51.462;6.698;2023-03-05T07:59:01;5.18;81.63
67862;DHT22;54665;51.462;6.698;2023-03-05T08:01:30;5.25;81.20
67862;DHT22;54665;51.462;6.698;2023-03-05T08:03:55;5.38;80.87
67862;DHT22;54665;51.462;6.698;2023-03-05T08:06:21;5.51;81.31
67862;DHT22;54665;51.462;6.698;2023-03-05T08:08:46;5.49;79.93
67862;DHT22;54665;51.462;6.698;2023-03-05T08:11:14;5.63;80.22
67862;DHT22;54665;51.462;6.698;2023-03-05T08:13:40;5.66;79.29
67862;DHT22;54665;51.462;6.698;2023-03-05T08:16:09;5.47;80.81
67862;DHT22;54665;51.462;6.698;2023-03-05T08:18:35;6.07;79.39
67862;DHT22;54665;51.462;6.698;2023-03-05T08:21:01;5.72;79.81
67862;DHT22;54665;51.462;6.698;2023-03-05T08:23:27;5.66;79.75
67862;DHT22;54665;51.462;6.698;2023-03-05T08:25:52;5.68;79.71
67862;DHT22;54665;51.462;6.698;2023-03-05T08:28:18;5.48;80.86
67862;DHT22;54665;51.462;6.698;2023-03-05T08:30:47;5.60;80.48
67862;DHT22;54665;51.462;6.698;2023-03-05T08:33:13;5.17;80.52
67862;DHT22;54665;51.462;6.698;2023-03-05T08:35:39;5.34;80.89
67862;DHT22;54665;51.462;6.698;2023-03-05T08:38:05;5.37;80.45
67862;DHT22;54665;51.462;6.698;2023-03-05T08:40:31;5.60;80.74
67862;DHT22;54665;51.462;6.698;2023-03-05T08:42:58;5.63;80.88
67862;DHT22;54665;51.462;6.698;2023-03-05T08:45:25;5.55;80.78
67862;DHT22;54665;51.462;6.698;2023-03-05T08:47:52;5.88;81.05
67862;DHT22;54665;51.462;6.698;2023-03-05T08:50:18;6.20;79.64
67862;DHT22;54665;51.462;6.698;2023-03-05T08:52:43;6.44;79.50
67862;DHT22;54665;51.462;6.698;2023-03-05T08:55:10;6.29;79.75
67862;DHT22;54665;51.462;6.698;2023-03-05T08:57:36;6.24;79.28
67862;DHT22;54665;51.462;6.698;2023-03-05T09:00:02;6.45;79.14
67862;DHT22;54665;51.462;6.698;2023-03-05T09:02:28;6.13;79.92
67862;DHT22;54665;51.462;6.698;2023-03-05T09:04:54;6.44;78.38
67862;DHT22;54665;51.462;6.698;2023-03-05T09:07:19;6.58;78.17
67862;DHT22;54665;51.462;6.698;2023-03-05T09:09:45;6.09;78.73
67862;DHT22;54665;51.462;6.698;2023-03-05T09:12:10;6.24;78.87
67862;DHT22;54665;51.462;6.698;2023-03-05T09:14:38;6.19;78.55
67862;DHT22;54665;51.462;6.698;2023-03-05T09:17:03;5.99;78.53
67862;DHT22;54665;51.462;6.698;2023-03-05T09:19:29;6.26;78.72
67862;DHT22;54665;51.462;6.698;2023-03-05T09:21:54;6.44;77.87
67862;DHT22;54665;51.462;6.698;2023-03-05T09:24:19;6.47;77.46
67862;DHT22;54665;51.462;6.698;2023-03-05T09:26:45;6.48;77.48
67862;DHT22;54665;51.462;6.698;2023-03-05T09:29:10;6.50;76.62
67862;DHT22;54665;51.462;6.698;2023-03-05T09:31:37;6.47;78.03
67862;DHT22;54665;51.462;6.698;2023-03-05T09:34:03;6.55;76.84
67862;DHT22;54665;51.462;6.698;2023-03-05T09:36:30;6.57;76.58
67862;DHT22;54665;51.462;6.698;2023-03-05T09:38:56;6.88;76.42
67862;DHT22;54665;51.462;6.698;2023-03-05T09:54:56;7.36;72.14
67862;DHT22;54665;51.462;6.698;2023-03-05T09:57:27;7.26;74.16
67862;DHT22;54665;51.462;6.698;2023-03-05T10:00:02;7.01;74.09
67862;DHT22;54665;51.462;6.698;2023-03-05T10:02:42;6.89;73.99
67862;DHT22;54665;51.462;6.698;2023-03-05T10:05:25;7.10;73.58
67862;DHT22;54665;51.462;6.698;2023-03-05T10:07:55;7.06;73.88
67862;DHT22;54665;51.462;6.698;2023-03-05T10:10:26;7.12;74.36
67862;DHT22;54665;51.462;6.698;2023-03-05T10:12:59;6.67;74.91
67862;DHT22;54665;51.462;6.698;2023-03-05T10:15:41;6.72;76.17
67862;DHT22;54665;51.462;6.698;2023-03-05T10:18:40;6.91;75.41
67862;DHT22;54665;51.462;6.698;2023-03-05T10:21:19;6.82;75.26
67862;DHT22;54665;51.462;6.698;2023-03-05T10:24:31;6.91;74.69
67862;DHT22;54665;51.462;6.698;2023-03-05T10:27:07;6.99;72.66
67862;DHT22;54665;51.462;6.698;2023-03-05T10:30:16;6.98;72.85
67862;DHT22;54665;51.462;6.698;2023-03-05T10:32:57;7.10;72.78
67862;DHT22;54665;51.462;6.698;2023-03-05T10:38:22;7.33;70.85
67862;DHT22;54665;51.462;6.698;2023-03-05T10:40:53;7.32;69.95
67862;DHT22;54665;51.462;6.698;2023-03-05T10:46:15;7.59;69.44
67862;DHT22;54665;51.462;6.698;2023-03-05T10:51:39;7.84;69.57
67862;DHT22;54665;51.462;6.698;2023-03-05T10:54:27;7.56;69.57
67862;DHT22;54665;51.462;6.698;2023-03-05T10:57:23;7.51;68.20
67862;DHT22;54665;51.462;6.698;2023-03-05T11:02:17;8.12;66.71
67862;DHT22;54665;51.462;6.698;2023-03-05T11:04:43;8.25;66.59
67862;DHT22;54665;51.462;6.698;2023-03-05T11:10:05;8.79;65.18
67862;DHT22;54665;51.462;6.698;2023-03-05T11:12:35;8.55;65.44
67862;DHT22;54665;51.462;6.698;2023-03-05T11:17:42;9.48;64.88
67862;DHT22;54665;51.462;6.698;2023-03-05T11:29:14;8.70;63.95
67862;DHT22;54665;51.462;6.698;2023-03-05T11:38:56;8.36;64.34
67862;DHT22;54665;51.462;6.698;2023-03-05T11:41:30;8.56;64.96
67862;DHT22;54665;51.462;6.698;2023-03-05T11:43:57;7.92;64.02
67862;DHT22;54665;51.462;6.698;2023-03-05T11:46:24;8.56;62.38
67862;DHT22;54665;51.462;6.698;2023-03-05T11:48:52;9.17;61.52
67862;DHT22;54665;51.462;6.698;2023-03-05T11:51:25;9.49;61.32
67862;DHT22;54665;51.462;6.698;2023-03-05T11:53:54;9.07;61.09
67862;DHT22;54665;51.462;6.698;2023-03-05T11:56:26;9.05;62.42
67862;DHT22;54665;51.462;6.698;2023-03-05T11:59:01;8.57;62.02
67862;DHT22;54665;51.462;6.698;2023-03-05T12:01:34;8.33;62.85
67862;DHT22;54665;51.462;6.698;2023-03-05T12:04:00;8.18;63.73
67862;DHT22;54665;51.462;6.698;2023-03-05T12:06:35;7.85;64.60
67862;DHT22;54665;51.462;6.698;2023-03-05T12:15:00;7.53;64.26
67862;DHT22;54665;51.462;6.698;2023-03-05T12:17:32;7.59;64.77
67862;DHT22;54665;51.462;6.698;2023-03-05T12:20:12;7.75;65.61
67862;DHT22;54665;51.462;6.698;2023-03-05T12:22:40;7.53;65.29
67862;DHT22;54665;51.462;6.698;2023-03-05T12:25:46;7.51;65.08
67862;DHT22;54665;51.462;6.698;2023-03-05T12:28:14;7.84;64.14
67862;DHT22;54665;51.462;6.698;2023-03-05T12:33:41;7.99;65.26
67862;DHT22;54665;51.462;6.698;2023-03-05T12:38:51;8.08;66.30
67862;DHT22;54665;51.462;6.698;2023-03-05T12:46:30;8.06;65.76
67862;DHT22;54665;51.462;6.698;2023-03-05T12:48:58;8.41;63.93
67862;DHT22;54665;51.462;6.698;2023-03-05T12:51:33;8.14;62.79
67862;DHT22;54665;51.462;6.698;2023-03-05T12:56:47;8.72;62.25
67862;DHT22;54665;51.462;6.698;2023-03-05T12:59:14;8.63;62.00
67862;DHT22;54665;51.462;6.698;2023-03-05T13:01:56;8.64;62.71
67862;DHT22;54665;51.462;6.698;2023-03-05T13:04:26;8.15;63.07
67862;DHT22;54665;51.462;6.698;2023-03-05T13:07:15;8.39;63.31
67862;DHT22;54665;51.462;6.698;2023-03-05T13:09:54;7.97;64.41
67862;DHT22;54665;51.462;6.698;2023-03-05T13:12:20;8.38;63.12
67862;DHT22;54665;51.462;6.698;2023-03-05T13:14:53;8.09;63.59
67862;DHT22;54665;51.462;6.698;2023-03-05T13:17:33;8.45;63.30
67862;DHT22;54665;51.462;6.698;2023-03-05T13:20:01;8.52;61.79
67862;DHT22;54665;51.462;6.698;2023-03-05T13:22:30;8.16;62.78
67862;DHT22;54665;51.462;6.698;2023-03-05T13:25:22;8.16;63.59
67862;DHT22;54665;51.462;6.698;2023-03-05T13:27:48;7.91;64.25
67862;DHT22;54665;51.462;6.698;2023-03-05T13:30:25;8.24;64.30
67862;DHT22;54665;51.462;6.698;2023-03-05T13:32:51;8.52;64.03
67862;DHT22;54665;51.462;6.698;2023-03-05T13:35:19;8.66;62.79
67862;DHT22;54665;51.462;6.698;2023-03-05T13:37:45;8.31;63.55
67862;DHT22;54665;51.462;6.698;2023-03-05T13:40:19;8.48;63.54
67862;DHT22;54665;51.462;6.698;2023-03-05T13:42:45;8.69;63.62
67862;DHT22;54665;51.462;6.698;2023-03-05T13:45:29;8.67;63.07
67862;DHT22;54665;51.462;6.698;2023-03-05T13:47:57;8.70;64.31
67862;DHT22;54665;51.462;6.698;2023-03-05T13:50:30;8.76;64.08
67862;DHT22;54665;51.462;6.698;2023-03-05T13:53:13;8.97;63.85
67862;DHT22;54665;51.462;6.698;2023-03-05T13:55:39;8.64;63.45
67862;DHT22;54665;51.462;6.698;2023-03-05T13:58:05;8.59;64.57
67862;DHT22;54665;51.462;6.698;2023-03-05T14:02:59;8.77;64.72
67862;DHT22;54665;51.462;6.698;2023-03-05T14:05:26;8.55;65.14
67862;DHT22;54665;51.462;6.698;2023-03-05T14:07:52;8.53;65.46
67862;DHT22;54665;51.462;6.698;2023-03-05T14:10:28;8.38;65.64
67862;DHT22;54665;51.462;6.698;2023-03-05T14:12:54;7.91;66.10
67862;DHT22;54665;51.462;6.698;2023-03-05T14:15:22;8.26;65.43
67862;DHT22;54665;51.462;6.698;2023-03-05T14:17:47;8.14;65.32
67862;DHT22;54665;51.462;6.698;2023-03-05T14:20:17;8.66;64.11
67862;DHT22;54665;51.462;6.698;2023-03-05T14:22:46;8.90;63.59
67862;DHT22;54665;51.462;6.698;2023-03-05T14:25:34;8.39;63.90
67862;DHT22;54665;51.462;6.698;2023-03-05T14:28:20;8.41;64.11
67862;DHT22;54665;51.462;6.698;2023-03-05T14:30:48;8.91;63.60
67862;DHT22;54665;51.462;6.698;2023-03-05T14:33:29;8.69;63.61
67862;DHT22;54665;51.462;6.698;2023-03-05T14:35:57;9.08;63.68
67862;DHT22;54665;51.462;6.698;2023-03-05T14:38:26;8.70;61.99
67862;DHT22;54665;51.462;6.698;2023-03-05T14:40:54;8.63;63.46
67862;DHT22;54665;51.462;6.698;2023-03-05T14:43:19;8.90;63.55
67862;DHT22;54665;51.462;6.698;2023-03-05T14:45:44;8.67;63.57
67862;DHT22;54665;51.462;6.698;2023-03-05T14:48:12;8.70;63.82
67862;DHT22;54665;51.462;6.698;2023-03-05T14:53:22;8.21;63.21
67862;DHT22;54665;51.462;6.698;2023-03-05T14:55:50;8.29;63.97
67862;DHT22;54665;51.462;6.698;2023-03-05T14:58:23;8.14;64.64
67862;DHT22;54665;51.462;6.698;2023-03-05T15:00:51;8.11;64.70
67862;DHT22;54665;51.462;6.698;2023-03-05T15:03:18;7.75;65.08
67862;DHT22;54665;51.462;6.698;2023-03-05T15:05:45;7.84;64.29
67862;DHT22;54665;51.462;6.698;2023-03-05T15:08:17;8.39;63.60
67862;DHT22;54665;51.462;6.698;2023-03-05T15:10:43;8.49;63.36
67862;DHT22;54665;51.462;6.698;2023-03-05T15:13:08;8.69;63.47
67862;DHT22;54665;51.462;6.698;2023-03-05T15:15:34;8.57;63.54
67862;DHT22;54665;51.462;6.698;2023-03-05T15:17:59;8.60;63.54
67862;DHT22;54665;51.462;6.698;2023-03-05T15:20:28;8.25;63.79
67862;DHT22;54665;51.462;6.698;2023-03-05T15:22:54;7.90;63.33
67862;DHT22;54665;51.462;6.698;2023-03-05T15:25:22;7.51;63.10
67862;DHT22;54665;51.462;6.698;2023-03-05T15:27:48;8.04;63.42
67862;DHT22;54665;51.462;6.698;2023-03-05T15:32:49;7.90;64.11
67862;DHT22;54665;51.462;6.698;2023-03-05T15:35:15;7.74;63.75
67862;DHT22;54665;51.462;6.698;2023-03-05T15:37:40;7.66;63.96
67862;DHT22;54665;51.462;6.698;2023-03-05T15:40:06;8.08;63.51
67862;DHT22;54665;51.462;6.698;2023-03-05T15:42:32;7.63;63.29
67862;DHT22;54665;51.462;6.698;2023-03-05T15:44:57;7.74;63.73
67862;DHT22;54665;51.462;6.698;2023-03-05T15:47:23;7.87;63.11
67862;DHT22;54665;51.462;6.698;2023-03-05T15:49:48;7.99;63.03
67862;DHT22;54665;51.462;6.698;2023-03-05T15:52:14;8.25;62.86
67862;DHT22;54665;51.462;6.698;2023-03-05T15:54:39;8.06;62.89
67862;DHT22;54665;51.462;6.698;2023-03-05T15:57:08;8.25;63.15
67862;DHT22;54665;51.462;6.698;2023-03-05T15:59:34;8.09;63.61
67862;DHT22;54665;51.462;6.698;2023-03-05T16:02:00;8.06;63.81
67862;DHT22;54665;51.462;6.698;2023-03-05T16:04:26;7.94;64.43
67862;DHT22;54665;51.462;6.698;2023-03-05T16:06:54;7.85;64.77
67862;DHT22;54665;51.462;6.698;2023-03-05T16:09:21;7.42;65.28
67862;DHT22;54665;51.462;6.698;2023-03-05T16:11:47;7.59;65.73
67862;DHT22;54665;51.462;6.698;2023-03-05T16:14:18;7.69;65.58
67862;DHT22;54665;51.462;6.698;2023-03-05T16:16:45;7.63;63.94
67862;DHT22;54665;51.462;6.698;2023-03-05T16:19:13;7.63;64.46
67862;DHT22;54665;51.462;6.698;2023-03-05T16:21:39;7.56;64.22
67862;DHT22;54665;51.462;6.698;2023-03-05T16:24:05;7.34;64.06
67862;DHT22;54665;51.462;6.698;2023-03-05T16:26:33;7.40;64.15
67862;DHT22;54665;51.462;6.698;2023-03-05T16:28:59;7.32;64.42
67862;DHT22;54665;51.462;6.698;2023-03-05T16:31:28;7.29;64.19
67862;DHT22;54665;51.462;6.698;2023-03-05T16:33:54;7.26;64.23
67862;DHT22;54665;51.462;6.698;2023-03-05T16:36:22;7.27;64.32
67862;DHT22;54665;51.462;6.698;2023-03-05T16:38:49;7.34;64.33
67862;DHT22;54665;51.462;6.698;2023-03-05T16:41:16;7.13;65.08
67862;DHT22;54665;51.462;6.698;2023-03-05T16:43:42;7.15;65.37
67862;DHT22;54665;51.462;6.698;2023-03-05T16:46:09;7.05;65.92
67862;DHT22;54665;51.462;6.698;2023-03-05T16:48:35;7.19;65.87
67862;DHT22;54665;51.462;6.698;2023-03-05T16:51:01;7.08;66.61
67862;DHT22;54665;51.462;6.698;2023-03-05T16:53:26;7.03;67.06
67862;DHT22;54665;51.462;6.698;2023-03-05T16:55:52;6.99;66.91
67862;DHT22;54665;51.462;6.698;2023-03-05T16:58:17;6.93;67.42
67862;DHT22;54665;51.462;6.698;2023-03-05T17:00:43;6.93;67.29
67862;DHT22;54665;51.462;6.698;2023-03-05T17:03:08;6.78;67.87
67862;DHT22;54665;51.462;6.698;2023-03-05T17:05:36;6.75;67.18